首页
METAR-TAF:

METAR-TAF

机场 :

Merced Municipal Airport (MacReady Field)

美熹德, 加利福尼亚州, 美国

纬度: 37-16-59N, 经度: 120-30-28W, 海拔: 47米

当前天气观测

该预报发布于40分钟前的20:53 UTC
风速6节,风向西北
温度 25°C
湿度 47%
气压 1016 hPa
能見度: 16.1公里
天空无云

METAR: KMCE 172053Z AUTO 31006KT 10SM CLR 25/13 A3000 RMK AO2 SLP157 T02500128 58018

时间: 14:33 (21:33 UTC)

预报

该预报发布于4小时和13分钟前的17:20 UTC
预报有效从17日的 18点(UTC)到 18日的 18点(UTC)
风速5节,风向北转西北
能見度: 10公里
多云层高于25000英尺
从 18日的 1200点(UTC)
风速3节,风向多变
能見度: 8.0公里
多云层高于25000英尺
轻雾,

TAF: KMCE 171720Z 1718/1818 33005KT P6SM BKN250 FM181200 VRB03KT 5SM BR BKN250

超过4000个机场的气象观测和天气预报(METAR&TAF报告)。

可查询的气象台以黄色和红色小点在地图上表示。

将鼠标移到小点上方,可查看气象台名称。

然后点击查看天气观测和预报。

如需切换地图:点击带黑十字的绿色按钮放大地图;点击带横线的绿色按钮缩小地图;或者点击绿色箭头查看邻近地区的地图。


METAR-TAF: